Time;durP1;ratioP1;P1;durP2;ratioP2;P2;SDS_P1;SDS_P2;PMS_P1;PMS_P2;Temp;Humidity;BMP_temperature;BMP_pressure;BME280_temperature;BME280_humidity;BME280_pressure;Samples;Min_cycle;Max_cycle;Signal;HPM_P1;HPM_P2
2022/04/17 00:00:06;;;;;;;7.03;3.33;;;1.60;65.70;;;;;;5112802;28;20194;-86
2022/04/17 00:02:33;;;;;;;6.17;3.27;;;1.60;93.10;;;;;;5113194;28;20186;-87
2022/04/17 00:05:01;;;;;;;7.40;3.33;;;1.70;90.80;;;;;;5113033;28;20190;-87
2022/04/17 00:07:29;;;;;;;6.30;3.33;;;1.60;97.80;;;;;;5106286;28;20187;-87
2022/04/17 00:09:56;;;;;;;5.17;3.03;;;1.60;97.50;;;;;;5102501;28;20210;-87
2022/04/17 00:12:24;;;;;;;6.27;3.27;;;1.60;96.50;;;;;;5112570;28;20194;-87
2022/04/17 00:14:51;;;;;;;5.90;2.80;;;1.50;99.90;;;;;;5112987;28;20226;-87
2022/04/17 00:17:20;;;;;;;6.60;3.10;;;1.70;99.90;;;;;;5112296;28;20666;-87
2022/04/17 00:19:47;;;;;;;5.27;3.30;;;1.60;99.90;;;;;;5112904;28;20255;-86
2022/04/17 00:22:14;;;;;;;4.27;2.70;;;1.70;99.90;;;;;;5112969;28;20194;-87
2022/04/17 00:24:42;;;;;;;5.10;2.70;;;1.60;99.90;;;;;;5113253;28;20194;-87
2022/04/17 00:27:09;;;;;;;7.47;4.63;;;1.70;99.90;;;;;;5113203;28;20814;-87
2022/04/17 00:29:36;;;;;;;5.40;3.10;;;1.60;99.90;;;;;;5112881;28;20226;-87
2022/04/17 00:32:03;;;;;;;6.10;3.43;;;1.60;99.90;;;;;;5112406;28;20724;-87
2022/04/17 00:34:32;;;;;;;5.67;3.10;;;1.60;99.90;;;;;;5112547;28;20194;-87
2022/04/17 00:37:00;;;;;;;4.97;3.37;;;1.60;99.90;;;;;;5110619;28;20598;-86
2022/04/17 00:39:27;;;;;;;5.30;2.90;;;1.50;99.90;;;;;;5093250;28;20213;-88
2022/04/17 00:41:55;;;;;;;4.13;2.80;;;1.40;99.90;;;;;;5096427;28;20645;-87
2022/04/17 00:44:21;;;;;;;6.87;3.00;;;1.40;99.90;;;;;;5096214;28;20621;-87
2022/04/17 00:46:49;;;;;;;5.53;3.30;;;1.50;99.90;;;;;;5110640;28;20247;-87
2022/04/17 00:49:16;;;;;;;5.47;2.90;;;1.50;99.90;;;;;;5116387;28;20652;-86
2022/04/17 00:51:47;;;;;;;5.73;2.70;;;1.50;99.90;;;;;;5116764;28;20182;-87
2022/04/17 00:54:15;;;;;;;4.80;2.90;;;1.40;99.90;;;;;;5116823;28;20244;-88
2022/04/17 00:56:43;;;;;;;4.13;2.77;;;1.30;99.90;;;;;;5116533;28;20224;-87
2022/04/17 00:59:10;;;;;;;5.47;2.80;;;1.40;99.90;;;;;;5116893;28;20191;-87
2022/04/17 01:01:38;;;;;;;3.97;2.60;;;1.50;99.90;;;;;;5116139;28;20721;-87
2022/04/17 01:04:06;;;;;;;8.03;3.13;;;1.50;99.90;;;;;;5116572;28;20182;-87
2022/04/17 01:06:33;;;;;;;5.40;3.10;;;1.50;99.90;;;;;;5116158;28;20198;-87
2022/04/17 01:09:02;;;;;;;6.07;2.97;;;1.40;99.90;;;;;;5099941;28;20657;-87
2022/04/17 01:11:30;;;;;;;4.50;2.93;;;1.50;99.90;;;;;;5095580;28;20217;-87
2022/04/17 01:13:59;;;;;;;5.40;3.00;;;1.40;99.90;;;;;;5096023;28;20195;-87
2022/04/17 01:16:27;;;;;;;4.33;2.83;;;1.40;99.90;;;;;;5095862;28;20187;-88
2022/04/17 01:19:01;;;;;;;4.43;2.90;;;1.40;99.90;;;;;;5095825;28;20195;-88
2022/04/17 01:21:30;;;;;;;5.03;3.00;;;1.50;99.90;;;;;;5095710;28;20192;-87
2022/04/17 01:26:59;;;;;;;5.53;2.90;;;1.50;99.90;;;;;;5095853;28;20627;-87
2022/04/17 01:29:31;;;;;;;4.77;2.70;;;1.50;99.90;;;;;;5095639;28;20547;-88
2022/04/17 01:31:58;;;;;;;5.80;3.10;;;1.40;99.90;;;;;;5095657;28;20214;-87
2022/04/17 01:34:26;;;;;;;5.33;3.00;;;1.40;99.90;;;;;;5095749;28;20195;-88
2022/04/17 01:36:54;;;;;;;4.97;2.70;;;1.50;99.90;;;;;;5095701;28;20601;-86
2022/04/17 01:39:21;;;;;;;4.73;2.50;;;1.30;99.90;;;;;;5112687;28;20307;-87
2022/04/17 01:41:50;;;;;;;4.90;2.60;;;1.30;99.90;;;;;;5115438;28;20682;-88
2022/04/17 01:44:17;;;;;;;5.27;3.00;;;1.40;99.90;;;;;;5115793;28;20243;-86
2022/04/17 01:46:44;;;;;;;3.90;2.73;;;1.50;99.90;;;;;;5115416;28;20195;-87
2022/04/17 01:49:12;;;;;;;5.13;2.70;;;1.50;99.90;;;;;;5115930;28;20194;-87
2022/04/17 01:51:41;;;;;;;5.53;3.30;;;1.40;99.90;;;;;;5115061;28;20301;-88
2022/04/17 01:54:11;;;;;;;5.17;3.23;;;1.50;99.90;;;;;;5115322;28;20549;-88
2022/04/17 01:56:39;;;;;;;4.60;2.73;;;1.50;99.90;;;;;;5115993;28;20206;-87
2022/04/17 01:59:07;;;;;;;9.37;3.47;;;1.40;99.90;;;;;;5115622;28;20247;-88
2022/04/17 02:01:35;;;;;;;6.40;3.20;;;1.50;99.90;;;;;;5115239;28;20187;-87
2022/04/17 02:04:03;;;;;;;6.13;3.70;;;1.40;99.90;;;;;;5115410;28;20190;-86
2022/04/17 02:06:30;;;;;;;5.00;2.93;;;1.50;99.90;;;;;;5115298;28;20190;-88
2022/04/17 02:08:57;;;;;;;8.43;4.03;;;1.50;99.90;;;;;;5103929;28;20192;-87
2022/04/17 02:11:27;;;;;;;6.23;3.90;;;1.60;99.90;;;;;;5110316;28;20211;-86
2022/04/17 02:13:54;;;;;;;5.90;3.77;;;1.60;99.90;;;;;;5115094;28;20648;-86
2022/04/17 02:16:21;;;;;;;5.97;3.60;;;1.50;99.90;;;;;;5115214;28;20203;-87
2022/04/17 02:18:49;;;;;;;6.30;3.73;;;1.50;99.90;;;;;;5114894;28;20633;-87
2022/04/17 02:21:18;;;;;;;6.40;3.93;;;1.60;99.90;;;;;;5115267;28;20202;-88
2022/04/17 02:23:46;;;;;;;7.77;3.80;;;1.60;99.90;;;;;;5114959;28;20597;-87
2022/04/17 02:26:16;;;;;;;7.43;4.33;;;1.60;99.90;;;;;;5115091;28;20195;-87
2022/04/17 02:28:45;;;;;;;6.17;3.93;;;1.60;99.90;;;;;;5115073;28;20222;-87
2022/04/17 02:31:12;;;;;;;5.97;3.80;;;1.60;99.90;;;;;;5105401;28;20707;-88
2022/04/17 02:33:40;;;;;;;7.07;3.60;;;1.40;99.90;;;;;;5094553;28;20557;-87
2022/04/17 02:36:07;;;;;;;6.03;3.63;;;1.50;99.90;;;;;;5093977;28;20610;-87
2022/04/17 02:38:35;;;;;;;6.83;5.20;;;1.60;99.90;;;;;;5094239;28;20195;-87
2022/04/17 02:41:02;;;;;;;8.80;6.17;;;1.40;99.90;;;;;;5094141;28;20260;-86
2022/04/17 02:43:29;;;;;;;8.47;5.40;;;1.50;99.90;;;;;;5094343;28;20607;-88
2022/04/17 02:45:57;;;;;;;9.00;5.70;;;1.40;99.90;;;;;;5094375;28;20256;-87
2022/04/17 02:48:23;;;;;;;8.07;5.47;;;1.60;99.90;;;;;;5094354;28;20605;-88
2022/04/17 02:50:50;;;;;;;8.17;5.20;;;1.50;99.90;;;;;;5094181;28;20219;-87
2022/04/17 02:53:18;;;;;;;8.53;5.17;;;1.60;99.90;;;;;;5094255;28;20245;-87
2022/04/17 02:55:45;;;;;;;9.90;5.47;;;1.50;99.90;;;;;;5093923;28;20646;-87
2022/04/17 02:58:12;;;;;;;6.77;4.47;;;1.60;99.90;;;;;;5094031;28;20237;-88
2022/04/17 03:05:36;;;;;;;7.57;4.57;;;1.60;99.90;;;;;;5100083;28;20187;-87
2022/04/17 03:06:15;;;;;;;6.10;3.63;;;1.60;99.90;;;;;;5114010;28;20174;-86
2022/04/17 03:08:43;;;;;;;6.57;3.90;;;1.60;99.90;;;;;;5114084;28;20198;-87
2022/04/17 03:11:11;;;;;;;6.47;3.53;;;1.70;99.90;;;;;;5113992;28;20679;-88
2022/04/17 03:13:38;;;;;;;6.47;3.60;;;1.70;99.90;;;;;;5114166;28;20566;-88
2022/04/17 03:16:05;;;;;;;6.20;3.97;;;1.70;99.90;;;;;;5114193;28;20251;-87
2022/04/17 03:18:34;;;;;;;7.30;3.70;;;1.70;99.90;;;;;;5113861;28;20294;-87
2022/04/17 03:21:01;;;;;;;7.07;4.20;;;1.70;99.90;;;;;;5113855;28;20195;-87
2022/04/17 03:23:28;;;;;;;7.30;4.80;;;1.60;99.90;;;;;;5113815;28;20583;-87
2022/04/17 03:25:55;;;;;;;7.43;4.97;;;1.60;99.90;;;;;;5113904;28;20190;-87
2022/04/17 03:28:22;;;;;;;11.50;6.00;;;1.60;99.90;;;;;;5113708;28;20233;-87
2022/04/17 03:30:49;;;;;;;9.70;5.97;;;1.60;99.90;;;;;;5113839;28;20210;-86
2022/04/17 03:33:16;;;;;;;13.13;7.50;;;1.60;99.90;;;;;;5113912;28;20524;-87
2022/04/17 03:35:45;;;;;;;16.10;8.33;;;1.70;99.90;;;;;;5113522;28;20191;-88
2022/04/17 03:38:12;;;;;;;15.07;8.07;;;1.80;99.90;;;;;;5113343;28;20198;-86
2022/04/17 03:40:39;;;;;;;14.83;8.23;;;1.70;99.90;;;;;;5113101;28;20547;-86
2022/04/17 03:43:07;;;;;;;14.97;8.23;;;1.70;99.90;;;;;;5113221;28;20202;-86
2022/04/17 03:45:34;;;;;;;16.43;8.43;;;1.80;99.90;;;;;;5113240;28;20662;-87
2022/04/17 03:48:01;;;;;;;15.57;8.37;;;1.70;99.90;;;;;;5113791;28;20197;-87
2022/04/17 03:50:28;;;;;;;12.87;7.53;;;1.70;99.90;;;;;;5113355;28;20190;-87
2022/04/17 03:52:57;;;;;;;11.60;7.37;;;1.70;99.90;;;;;;5112994;28;20194;-88
2022/04/17 03:55:25;;;;;;;11.37;6.50;;;1.70;99.90;;;;;;5113393;28;20198;-87
2022/04/17 03:57:52;;;;;;;8.93;5.77;;;1.70;99.90;;;;;;5113212;28;20195;-87
2022/04/17 04:00:19;;;;;;;9.97;5.53;;;1.70;99.90;;;;;;5111963;28;20187;-86
2022/04/17 04:02:51;;;;;;;12.57;7.10;;;1.70;99.90;;;;;;5094675;28;20187;-88
2022/04/17 04:05:19;;;;;;;9.50;5.70;;;1.80;99.90;;;;;;5092957;28;20192;-87
2022/04/17 04:07:47;;;;;;;10.47;5.80;;;1.70;99.90;;;;;;5092738;28;20197;-87
2022/04/17 04:10:16;;;;;;;9.23;5.80;;;1.80;99.90;;;;;;5092982;28;20226;-88
2022/04/17 04:12:43;;;;;;;11.33;6.63;;;1.70;99.90;;;;;;5092330;28;20649;-87
2022/04/17 04:15:10;;;;;;;10.53;6.30;;;1.70;99.90;;;;;;5092707;28;20195;-87
2022/04/17 04:17:37;;;;;;;11.63;6.43;;;1.90;99.90;;;;;;5092747;28;20195;-87
2022/04/17 04:20:06;;;;;;;12.53;7.07;;;2.00;99.90;;;;;;5092497;28;20608;-88
2022/04/17 04:22:33;;;;;;;11.80;6.73;;;1.90;99.90;;;;;;5092542;28;20527;-87
2022/04/17 04:25:00;;;;;;;10.63;6.17;;;2.10;99.90;;;;;;5092821;28;20192;-87
2022/04/17 04:30:13;;;;;;;8.47;5.23;;;2.20;99.90;;;;;;5094293;28;20167;-87
2022/04/17 04:32:39;;;;;;;10.03;5.20;;;2.50;99.90;;;;;;5105876;28;20207;-88
2022/04/17 04:35:07;;;;;;;9.20;5.30;;;2.60;99.90;;;;;;5093165;28;20195;-88
2022/04/17 04:37:34;;;;;;;10.67;5.93;;;2.40;99.90;;;;;;5093805;28;20187;-88
2022/04/17 04:40:01;;;;;;;11.90;5.90;;;2.60;99.90;;;;;;5092990;28;20252;-89
2022/04/17 04:42:30;;;;;;;10.13;6.37;;;2.80;99.90;;;;;;5092276;28;20657;-87
2022/04/17 04:47:46;;;;;;;17.10;9.83;;;3.00;99.90;;;;;;5057928;28;20555;-88
2022/04/17 04:50:13;;;;;;;11.67;6.13;;;3.10;99.90;;;;;;5092737;28;20649;-87
2022/04/17 04:52:40;;;;;;;18.57;10.97;;;3.30;99.90;;;;;;5099098;28;20206;-88
2022/04/17 04:55:08;;;;;;;18.20;12.90;;;3.30;99.90;;;;;;5112772;28;20239;-88
2022/04/17 04:57:37;;;;;;;16.23;10.97;;;3.40;99.90;;;;;;5113115;28;20190;-88
2022/04/17 05:00:05;;;;;;;9.87;5.90;;;3.50;99.90;;;;;;5110850;28;20201;-88
2022/04/17 05:02:32;;;;;;;9.10;5.70;;;3.60;99.90;;;;;;5093347;28;20195;-88
2022/04/17 05:05:00;;;;;;;11.10;7.37;;;3.90;99.90;;;;;;5093329;28;20209;-87
2022/04/17 05:07:27;;;;;;;9.33;6.23;;;4.00;99.90;;;;;;5092824;28;20188;-88
2022/04/17 05:09:54;;;;;;;9.77;6.57;;;4.20;99.90;;;;;;5093153;28;20195;-88
2022/04/17 05:12:22;;;;;;;11.70;6.60;;;4.30;99.90;;;;;;5096336;28;20667;-89
2022/04/17 05:14:50;;;;;;;11.53;6.43;;;4.60;99.90;;;;;;5097005;28;20255;-88
2022/04/17 05:17:17;;;;;;;25.13;12.30;;;4.80;99.90;;;;;;5092472;28;20203;-89
2022/04/17 05:19:45;;;;;;;15.33;8.60;;;4.90;99.90;;;;;;5096741;28;20200;-89
2022/04/17 05:22:16;;;;;;;14.63;8.87;;;5.20;99.90;;;;;;5096960;28;20183;-89
2022/04/17 05:24:43;;;;;;;13.17;8.03;;;5.30;99.90;;;;;;5131903;27;20207;-89
2022/04/17 05:27:10;;;;;;;14.60;8.73;;;5.50;99.90;;;;;;5129599;27;20594;-88
2022/04/17 05:29:37;;;;;;;14.17;8.97;;;5.70;99.90;;;;;;5121132;28;20266;-89
2022/04/17 05:32:06;;;;;;;18.43;11.53;;;5.80;99.90;;;;;;5097056;28;20269;-89
2022/04/17 05:34:35;;;;;;;13.10;6.40;;;6.00;99.90;;;;;;5099839;28;20199;-88
2022/04/17 05:37:03;;;;;;;8.67;5.73;;;6.10;99.90;;;;;;5103093;28;20202;-89
2022/04/17 05:39:30;;;;;;;15.57;8.90;;;6.20;99.90;;;;;;5101946;28;20206;-89
2022/04/17 05:41:58;;;;;;;17.63;11.27;;;6.10;99.90;;;;;;5097193;28;20244;-89
2022/04/17 05:44:25;;;;;;;21.97;12.73;;;6.20;99.90;;;;;;5096596;28;20197;-89
2022/04/17 05:46:53;;;;;;;21.90;12.97;;;6.40;99.90;;;;;;5097750;28;20191;-88
2022/04/17 05:49:21;;;;;;;19.17;10.67;;;6.60;99.90;;;;;;5098044;28;20200;-89
2022/04/17 05:51:49;;;;;;;21.43;12.00;;;6.80;99.90;;;;;;5096969;28;20733;-89
2022/04/17 05:54:16;;;;;;;19.37;11.50;;;7.00;99.90;;;;;;5096676;28;20289;-89
2022/04/17 05:56:43;;;;;;;23.43;11.70;;;7.20;99.90;;;;;;5096902;28;20241;-89
2022/04/17 05:59:10;;;;;;;16.90;10.30;;;7.60;99.90;;;;;;5113153;27;20530;-89
2022/04/17 06:01:37;;;;;;;17.93;9.03;;;8.00;99.90;;;;;;5108069;27;20247;-89
2022/04/17 06:04:06;;;;;;;15.70;9.10;;;8.60;99.90;;;;;;5095971;28;20200;-88
2022/04/17 06:06:34;;;;;;;193.20;49.63;;;9.20;99.90;;;;;;5108824;28;20614;-89
2022/04/17 06:09:02;;;;;;;111.07;32.63;;;9.80;99.90;;;;;;5119046;28;20599;-89
2022/04/17 06:11:29;;;;;;;22.97;9.17;;;10.50;90.60;;;;;;5117515;28;20274;-91
2022/04/17 06:13:56;;;;;;;12.80;6.67;;;11.30;28.90;;;;;;5117967;28;20247;-90
2022/04/17 06:16:24;;;;;;;11.47;6.63;;;12.10;1.00;;;;;;5122816;27;20244;-91
2022/04/17 06:18:51;;;;;;;13.13;7.70;;;12.70;1.00;;;;;;5104805;28;20277;-90
2022/04/17 06:21:18;;;;;;;15.30;8.73;;;13.30;1.00;;;;;;5096562;28;20603;-89
2022/04/17 06:23:47;;;;;;;11.95;8.13;;;13.90;1.00;;;;;;5094163;28;20227;-87
2022/04/17 06:26:14;;;;;;;16.58;12.35;;;14.60;1.00;;;;;;5094590;28;20248;-88
2022/04/17 06:28:41;;;;;;;11.07;6.82;;;15.70;1.00;;;;;;5095489;28;20224;-88
2022/04/17 06:31:08;;;;;;;9.68;5.93;;;16.70;1.00;;;;;;5095901;28;20245;-89
2022/04/17 06:33:35;;;;;;;8.35;5.80;;;17.50;1.00;;;;;;5108816;28;20190;-87
2022/04/17 06:36:02;;;;;;;9.00;5.00;;;17.80;1.00;;;;;;5117511;28;20244;-88
2022/04/17 06:38:29;;;;;;;9.27;5.22;;;17.80;1.00;;;;;;5101514;28;20264;-88
2022/04/17 06:40:58;;;;;;;7.68;5.15;;;17.60;1.00;;;;;;5094709;28;20203;-88
2022/04/17 06:43:25;;;;;;;9.98;6.63;;;17.60;1.00;;;;;;5095464;28;20640;-88
2022/04/17 06:45:52;;;;;;;9.10;6.03;;;17.60;1.00;;;;;;5098133;28;20200;-88
2022/04/17 06:48:21;;;;;;;8.15;5.45;;;17.60;1.00;;;;;;5096622;28;20601;-88
2022/04/17 06:50:50;;;;;;;10.98;5.93;;;17.50;1.00;;;;;;5107360;28;20190;-88
2022/04/17 06:53:17;;;;;;;7.03;5.28;;;17.40;1.00;;;;;;5110964;28;20195;-89
2022/04/17 06:55:44;;;;;;;14.52;13.00;;;17.40;1.00;;;;;;5117501;28;20186;-89
2022/04/17 06:58:14;;;;;;;7.82;5.47;;;17.60;1.00;;;;;;5107894;27;20202;-88
2022/04/17 07:00:42;;;;;;;10.15;8.20;;;18.00;1.00;;;;;;5107835;28;20199;-89
2022/04/17 07:03:09;;;;;;;9.48;5.47;;;18.00;1.00;;;;;;5106154;28;20212;-88
2022/04/17 07:05:36;;;;;;;6.38;4.88;;;18.10;1.00;;;;;;5113394;28;20226;-89
2022/04/17 07:08:06;;;;;;;9.23;6.72;;;18.60;1.00;;;;;;5123074;28;20184;-89
2022/04/17 07:10:37;;;;;;;8.27;5.65;;;19.30;1.00;;;;;;5106621;28;20276;-89
2022/04/17 07:13:04;;;;;;;5.20;4.18;;;20.60;1.00;;;;;;5121880;27;20295;-90
2022/04/17 07:15:32;;;;;;;6.40;4.25;;;21.50;1.00;;;;;;5120565;28;20213;-91
2022/04/17 07:17:59;;;;;;;171.13;98.38;;;21.80;1.00;;;;;;5119281;28;20186;-88
2022/04/17 07:20:26;;;;;;;9.63;6.25;;;22.10;1.00;;;;;;5121913;28;20251;-88
2022/04/17 07:22:53;;;;;;;75.95;40.00;;;22.70;1.00;;;;;;5119863;28;20288;-88
2022/04/17 07:25:21;;;;;;;262.67;128.32;;;23.00;1.00;;;;;;5120862;28;20213;-88
2022/04/17 07:27:50;;;;;;;74.15;42.38;;;23.50;1.00;;;;;;5120288;28;20226;-89
2022/04/17 07:30:19;;;;;;;30.67;21.77;;;24.20;1.00;;;;;;5116319;28;20202;-89
2022/04/17 07:32:50;;;;;;;8.35;4.60;;;25.00;1.00;;;;;;5105132;28;20221;-90
2022/04/17 07:35:18;;;;;;;9.77;8.75;;;25.50;1.00;;;;;;5104914;28;20179;-88
2022/04/17 07:37:48;;;;;;;6.45;4.80;;;25.50;1.00;;;;;;5104071;28;20195;-88
2022/04/17 07:40:18;;;;;;;17.80;14.82;;;25.70;1.00;;;;;;5104102;28;20211;-88
2022/04/17 07:42:46;;;;;;;7.00;5.28;;;25.90;1.00;;;;;;5103807;28;20218;-88
2022/04/17 07:45:15;;;;;;;6.97;5.50;;;26.20;1.00;;;;;;5103864;28;20188;-89
2022/04/17 07:47:42;;;;;;;11.68;10.23;;;26.20;1.00;;;;;;5103488;28;20767;-88
2022/04/17 07:50:16;;;;;;;20.23;15.10;;;26.10;1.00;;;;;;5104139;28;20198;-89
2022/04/17 07:52:44;;;;;;;12.68;9.45;;;26.20;1.00;;;;;;5103468;28;20199;-89
2022/04/17 07:55:13;;;;;;;146.05;105.90;;;26.30;1.00;;;;;;5103616;28;20233;-89
2022/04/17 07:58:01;;;;;;;22.25;16.73;;;26.30;1.00;;;;;;5103671;28;20198;-89
2022/04/17 08:00:31;;;;;;;6.88;5.05;;;26.20;1.00;;;;;;5109972;28;20270;-90
2022/04/17 08:03:09;;;;;;;9.23;6.60;;;26.50;1.00;;;;;;5123988;28;20219;-90
2022/04/17 08:05:38;;;;;;;7.25;5.63;;;26.50;1.00;;;;;;5103058;28;20206;-89
2022/04/17 08:08:07;;;;;;;3.75;3.45;;;27.00;1.00;;;;;;5101902;28;20199;-89
2022/04/17 08:10:34;;;;;;;4.82;4.13;;;27.60;1.00;;;;;;5101186;28;20199;-90
2022/04/17 08:13:02;;;;;;;6.35;5.75;;;27.60;1.00;;;;;;5101871;28;20203;-89
2022/04/17 08:15:29;;;;;;;4.55;3.72;;;27.40;1.00;;;;;;5102155;28;20188;-88
2022/04/17 08:17:56;;;;;;;4.57;4.00;;;27.40;1.00;;;;;;5101944;28;20191;-88
2022/04/17 08:20:24;;;;;;;5.50;3.60;;;27.00;1.00;;;;;;5100001;28;20199;-88
2022/04/17 08:22:53;;;;;;;7.10;4.43;;;26.90;1.00;;;;;;5100041;28;20227;-89
2022/04/17 08:25:20;;;;;;;3.97;3.58;;;26.70;1.00;;;;;;5100795;28;20629;-88
2022/04/17 08:27:48;;;;;;;4.75;3.63;;;26.40;1.00;;;;;;5100506;28;20243;-88
2022/04/17 08:30:19;;;;;;;5.60;4.88;;;26.00;1.00;;;;;;5101374;28;20603;-87
2022/04/17 08:32:46;;;;;;;4.95;4.13;;;25.40;1.00;;;;;;5091338;28;20187;-87
2022/04/17 08:35:13;;;;;;;15.65;12.82;;;25.00;1.00;;;;;;5091790;28;20184;-88
2022/04/17 08:37:40;;;;;;;11.30;10.20;;;24.90;1.00;;;;;;5096785;28;20195;-87
2022/04/17 08:40:11;;;;;;;8.95;8.00;;;25.20;1.00;;;;;;5092084;28;20195;-87
2022/04/17 08:42:39;;;;;;;16.75;14.88;;;25.50;1.00;;;;;;5092235;28;20241;-87
2022/04/17 08:45:08;;;;;;;16.33;13.93;;;25.90;1.00;;;;;;5092221;28;20199;-88
2022/04/17 08:47:36;;;;;;;11.88;9.38;;;26.40;1.00;;;;;;5091801;28;20664;-89
2022/04/17 08:50:07;;;;;;;11.35;9.43;;;27.00;1.00;;;;;;5091816;28;20192;-88
2022/04/17 08:52:35;;;;;;;8.00;6.95;;;27.60;1.00;;;;;;5103853;28;20249;-88
2022/04/17 08:55:03;;;;;;;8.40;6.03;;;27.80;1.00;;;;;;5112164;28;20210;-87
2022/04/17 08:57:32;;;;;;;7.18;6.47;;;28.30;1.00;;;;;;5112101;28;20191;-87
2022/04/17 08:59:59;;;;;;;7.60;5.00;;;28.30;1.00;;;;;;5112674;28;20660;-86
2022/04/17 09:02:26;;;;;;;5.88;5.28;;;27.90;1.00;;;;;;5115953;28;20215;-87
2022/04/17 09:04:53;;;;;;;7.53;6.78;;;27.70;1.00;;;;;;5116390;28;20187;-86
2022/04/17 09:07:20;;;;;;;11.30;9.68;;;27.40;1.00;;;;;;5116017;28;20195;-87
2022/04/17 09:09:50;;;;;;;12.52;11.23;;;27.10;1.00;;;;;;5115933;28;20197;-87
2022/04/17 09:12:19;;;;;;;13.48;12.05;;;26.50;1.00;;;;;;5115872;28;20202;-87
2022/04/17 09:14:48;;;;;;;7.90;6.55;;;25.80;1.00;;;;;;5116170;28;20278;-87
2022/04/17 09:17:16;;;;;;;6.45;5.38;;;25.00;1.00;;;;;;5115974;28;20544;-88
2022/04/17 09:19:44;;;;;;;9.27;8.15;;;24.40;1.00;;;;;;5116028;28;20233;-86
2022/04/17 09:22:12;;;;;;;6.60;5.60;;;23.70;1.00;;;;;;5115585;28;20179;-87
2022/04/17 09:24:41;;;;;;;5.40;4.47;;;23.20;1.00;;;;;;5115755;28;20194;-87
2022/04/17 09:27:11;;;;;;;7.03;5.28;;;22.80;1.00;;;;;;5098954;28;20601;-86
2022/04/17 09:29:39;;;;;;;7.57;4.70;;;22.20;1.00;;;;;;5094945;28;20223;-86
2022/04/17 09:32:09;;;;;;;5.13;4.47;;;21.90;1.00;;;;;;5095343;28;20204;-86
2022/04/17 09:34:44;;;;;;;5.55;3.92;;;21.50;1.00;;;;;;5095205;28;20252;-86
2022/04/17 09:37:16;;;;;;;5.60;4.00;;;21.50;1.00;;;;;;5094954;28;20195;-87
2022/04/17 09:39:44;;;;;;;8.20;4.30;;;21.30;1.00;;;;;;5095011;28;20256;-85
2022/04/17 09:42:11;;;;;;;10.05;5.15;;;21.30;1.00;;;;;;5095140;28;20715;-87
2022/04/17 09:44:49;;;;;;;12.65;8.32;;;21.20;1.00;;;;;;5102141;27;20246;-86
2022/04/17 09:47:20;;;;;;;10.75;5.57;;;21.30;1.00;;;;;;5115161;28;20256;-86
2022/04/17 09:49:58;;;;;;;8.35;4.60;;;21.30;1.00;;;;;;5114167;28;20179;-86
2022/04/17 09:52:27;;;;;;;6.38;4.35;;;21.20;1.00;;;;;;5103465;28;20179;-87
2022/04/17 09:54:54;;;;;;;9.98;5.82;;;21.10;1.00;;;;;;5094618;28;20186;-88
2022/04/17 09:57:29;;;;;;;8.52;5.40;;;20.80;1.00;;;;;;5094435;28;20180;-88
2022/04/17 09:59:57;;;;;;;11.85;6.00;;;20.70;1.00;;;;;;5099617;28;20219;-88
2022/04/17 10:02:26;;;;;;;11.20;6.30;;;20.50;1.00;;;;;;5115377;28;20203;-87
2022/04/17 10:04:53;;;;;;;13.77;6.88;;;20.40;1.00;;;;;;5114966;28;20192;-87
2022/04/17 10:07:23;;;;;;;43.85;16.45;;;20.10;1.00;;;;;;5115120;28;20187;-86
2022/04/17 10:09:50;;;;;;;15.48;7.28;;;20.30;1.00;;;;;;5114516;28;20183;-87
2022/04/17 10:12:19;;;;;;;9.18;4.78;;;20.20;1.00;;;;;;5115024;28;20226;-87
2022/04/17 10:14:49;;;;;;;5.60;3.85;;;20.30;1.00;;;;;;5115185;28;20219;-88
2022/04/17 10:17:19;;;;;;;7.32;4.55;;;20.30;1.00;;;;;;5114796;28;20277;-87
2022/04/17 10:19:49;;;;;;;8.25;5.45;;;20.30;1.00;;;;;;5115101;28;20187;-87
2022/04/17 10:22:18;;;;;;;5.32;4.32;;;20.30;1.00;;;;;;5104711;28;20274;-87
2022/04/17 10:24:51;;;;;;;6.07;4.70;;;20.30;1.00;;;;;;5094586;28;20627;-88
2022/04/17 10:27:22;;;;;;;5.32;4.20;;;20.30;1.00;;;;;;5094651;28;20268;-88
2022/04/17 10:29:54;;;;;;;5.82;4.40;;;20.30;1.00;;;;;;5094363;28;20196;-88
2022/04/17 10:33:09;;;;;;;5.10;4.28;;;19.90;1.00;;;;;;5093788;28;20371;-87
2022/04/17 10:36:03;;;;;;;6.30;4.07;;;19.80;1.00;;;;;;5093416;28;20195;-87
2022/04/17 10:38:32;;;;;;;5.97;4.00;;;19.90;1.00;;;;;;5094138;28;20668;-87
2022/04/17 10:41:01;;;;;;;4.80;3.60;;;20.00;1.00;;;;;;5094180;28;20269;-88
2022/04/17 10:43:35;;;;;;;4.35;3.40;;;20.00;1.00;;;;;;5094109;28;20212;-88
2022/04/17 10:46:10;;;;;;;4.90;3.85;;;20.00;1.00;;;;;;5094444;28;20679;-87
2022/04/17 10:48:45;;;;;;;4.90;3.70;;;20.00;1.00;;;;;;5094216;28;20199;-87
2022/04/17 10:51:20;;;;;;;4.47;3.40;;;19.80;1.00;;;;;;5094192;28;20237;-88
2022/04/17 10:53:59;;;;;;;4.70;3.60;;;19.50;1.00;;;;;;5107961;28;20240;-87
2022/04/17 10:56:26;;;;;;;4.80;3.33;;;19.50;1.00;;;;;;5094013;28;20233;-87
2022/04/17 10:58:56;;;;;;;6.70;3.90;;;19.40;1.00;;;;;;5093904;28;20257;-87
2022/04/17 11:01:50;;;;;;;4.72;3.90;;;19.40;1.00;;;;;;5093509;28;20248;-87
2022/04/17 11:04:18;;;;;;;5.57;3.92;;;19.30;1.00;;;;;;5093734;28;20272;-88
2022/04/17 11:06:52;;;;;;;3.65;3.15;;;19.10;1.00;;;;;;5093441;28;20586;-87
2022/04/17 11:09:21;;;;;;;4.95;3.78;;;18.90;1.00;;;;;;5094140;28;20187;-87
2022/04/17 11:11:49;;;;;;;3.92;3.50;;;18.70;1.00;;;;;;5093672;28;20195;-87
2022/04/17 11:14:19;;;;;;;4.80;3.78;;;18.50;1.00;;;;;;5093631;28;20195;-86
2022/04/17 11:16:49;;;;;;;5.45;4.00;;;18.00;1.00;;;;;;5093650;28;20211;-87
2022/04/17 11:19:18;;;;;;;6.60;4.38;;;18.10;1.00;;;;;;5093859;28;20269;-86
2022/04/17 11:21:49;;;;;;;5.60;3.88;;;18.10;1.00;;;;;;5098017;28;20187;-86
2022/04/17 11:24:17;;;;;;;6.25;3.67;;;18.00;1.00;;;;;;5106000;28;20665;-86
2022/04/17 11:27:09;;;;;;;10.30;5.70;;;18.00;1.00;;;;;;5092997;28;20657;-86
2022/04/17 11:29:43;;;;;;;9.38;4.72;;;18.20;1.00;;;;;;5093712;28;20223;-86
2022/04/17 11:32:48;;;;;;;5.13;3.92;;;18.10;1.00;;;;;;5093032;28;20184;-86
2022/04/17 11:35:16;;;;;;;7.53;4.90;;;18.10;1.00;;;;;;5092950;28;20215;-86
2022/04/17 11:37:56;;;;;;;8.68;4.45;;;18.10;1.00;;;;;;5092613;28;20249;-86
2022/04/17 11:40:26;;;;;;;16.30;8.57;;;18.00;1.00;;;;;;5093125;28;20183;-86
2022/04/17 11:42:54;;;;;;;10.05;5.57;;;18.00;1.00;;;;;;5092689;28;20192;-86
2022/04/17 11:45:23;;;;;;;4.95;4.20;;;18.00;1.00;;;;;;5093149;28;20199;-86
2022/04/17 11:47:50;;;;;;;6.30;4.40;;;17.80;1.00;;;;;;5092787;28;20616;-87
2022/04/17 11:50:23;;;;;;;6.55;4.35;;;17.90;1.00;;;;;;5092978;28;20240;-87
2022/04/17 11:52:51;;;;;;;7.50;4.95;;;17.90;1.00;;;;;;5106576;28;20240;-87
2022/04/17 11:55:24;;;;;;;7.40;4.97;;;17.90;1.00;;;;;;5113295;28;20213;-87
2022/04/17 11:57:51;;;;;;;4.88;4.07;;;17.90;1.00;;;;;;5112970;28;20739;-86
2022/04/17 12:00:18;;;;;;;4.63;3.85;;;17.90;1.00;;;;;;5106036;28;20241;-87
2022/04/17 12:02:45;;;;;;;5.43;3.15;;;17.90;1.00;;;;;;5092813;28;20256;-86
2022/04/17 12:05:14;;;;;;;3.45;2.92;;;17.80;1.00;;;;;;5092734;28;20280;-87
2022/04/17 12:07:44;;;;;;;4.43;3.30;;;17.80;1.00;;;;;;5092877;28;20207;-86
2022/04/17 12:10:12;;;;;;;3.58;2.47;;;17.90;1.00;;;;;;5092357;28;20192;-86
2022/04/17 12:12:42;;;;;;;3.13;2.38;;;18.10;1.00;;;;;;5092576;28;20195;-87
2022/04/17 12:15:12;;;;;;;4.05;2.70;;;18.30;1.00;;;;;;5092695;28;20714;-86
2022/04/17 12:17:40;;;;;;;3.10;2.42;;;18.40;1.00;;;;;;5092458;28;20195;-87
2022/04/17 12:20:09;;;;;;;3.40;2.60;;;18.50;1.00;;;;;;5092762;28;20191;-86
2022/04/17 12:22:37;;;;;;;4.57;3.25;;;18.60;1.00;;;;;;5094052;28;20188;-86
2022/04/17 12:25:05;;;;;;;4.75;2.88;;;18.80;1.00;;;;;;5092390;28;20243;-87
2022/04/17 12:27:32;;;;;;;3.60;2.60;;;19.00;1.00;;;;;;5092138;28;20253;-86
2022/04/17 12:30:02;;;;;;;3.45;2.92;;;19.10;1.00;;;;;;5092518;28;20176;-86
2022/04/17 12:32:29;;;;;;;4.38;2.78;;;18.90;1.00;;;;;;5092093;28;20626;-86
2022/04/17 12:35:01;;;;;;;3.33;2.50;;;18.80;1.00;;;;;;5094087;28;20199;-86
2022/04/17 12:37:29;;;;;;;7.03;3.35;;;18.60;1.00;;;;;;5096628;28;20582;-87
2022/04/17 12:40:10;;;;;;;3.15;2.45;;;18.60;1.00;;;;;;5096637;28;20192;-86
2022/04/17 12:42:37;;;;;;;5.30;3.22;;;18.30;1.00;;;;;;5097037;28;20190;-87
2022/04/17 12:45:07;;;;;;;3.05;2.33;;;18.30;1.00;;;;;;5096001;28;20593;-86
2022/04/17 12:47:36;;;;;;;14.25;6.30;;;18.20;1.00;;;;;;5096079;28;20608;-86
2022/04/17 12:50:04;;;;;;;3.95;2.53;;;18.20;1.00;;;;;;5096041;28;20673;-86
2022/04/17 12:52:32;;;;;;;3.63;2.40;;;18.20;1.00;;;;;;5107330;28;20240;-86
2022/04/17 12:55:07;;;;;;;3.17;1.83;;;18.10;1.00;;;;;;5116300;28;20248;-86
2022/04/17 12:57:34;;;;;;;2.63;2.08;;;17.90;1.00;;;;;;5116692;28;20179;-87
2022/04/17 13:00:03;;;;;;;4.03;2.05;;;17.70;1.00;;;;;;5116671;28;20239;-86
2022/04/17 13:02:31;;;;;;;5.10;2.53;;;17.50;1.00;;;;;;5116295;28;20273;-85
2022/04/17 13:05:00;;;;;;;2.53;1.80;;;17.40;1.00;;;;;;5116290;28;20317;-86
2022/04/17 13:07:34;;;;;;;2.58;2.10;;;17.50;1.00;;;;;;5116158;28;20623;-86
2022/04/17 13:10:02;;;;;;;2.38;2.00;;;17.40;1.00;;;;;;5116550;28;20696;-86
2022/04/17 13:12:33;;;;;;;2.35;1.90;;;17.50;1.00;;;;;;5116427;28;20275;-86